sensor_id;sensor_type;location;lat;lon;timestamp;P1;durP1;ratioP1;P2;durP2;ratioP2
68921;SDS011;55959;51.244;5.724;2023-05-10T00:00:08;9.80;;;8.90;;
68921;SDS011;55959;51.244;5.724;2023-05-10T00:02:35;8.90;;;8.13;;
68921;SDS011;55959;51.244;5.724;2023-05-10T00:05:01;9.90;;;8.90;;
68921;SDS011;55959;51.244;5.724;2023-05-10T00:07:26;8.60;;;7.90;;
68921;SDS011;55959;51.244;5.724;2023-05-10T00:09:52;10.10;;;9.20;;
68921;SDS011;55959;51.244;5.724;2023-05-10T00:12:18;10.30;;;9.43;;
68921;SDS011;55959;51.244;5.724;2023-05-10T00:14:44;11.07;;;10.00;;
68921;SDS011;55959;51.244;5.724;2023-05-10T00:17:10;11.20;;;10.10;;
68921;SDS011;55959;51.244;5.724;2023-05-10T00:19:35;10.60;;;9.63;;
68921;SDS011;55959;51.244;5.724;2023-05-10T00:22:01;12.03;;;10.83;;
68921;SDS011;55959;51.244;5.724;2023-05-10T00:24:28;10.73;;;9.73;;
68921;SDS011;55959;51.244;5.724;2023-05-10T00:26:53;9.87;;;8.97;;
68921;SDS011;55959;51.244;5.724;2023-05-10T00:29:19;8.77;;;8.00;;
68921;SDS011;55959;51.244;5.724;2023-05-10T00:31:45;8.73;;;7.93;;
68921;SDS011;55959;51.244;5.724;2023-05-10T00:34:10;10.40;;;9.50;;
68921;SDS011;55959;51.244;5.724;2023-05-10T00:36:36;10.63;;;9.63;;
68921;SDS011;55959;51.244;5.724;2023-05-10T00:39:02;10.63;;;9.63;;
68921;SDS011;55959;51.244;5.724;2023-05-10T00:41:28;11.37;;;10.17;;
68921;SDS011;55959;51.244;5.724;2023-05-10T00:43:57;10.90;;;9.90;;
68921;SDS011;55959;51.244;5.724;2023-05-10T00:46:23;11.40;;;10.30;;
68921;SDS011;55959;51.244;5.724;2023-05-10T00:48:49;11.77;;;10.67;;
68921;SDS011;55959;51.244;5.724;2023-05-10T00:51:15;12.47;;;11.37;;
68921;SDS011;55959;51.244;5.724;2023-05-10T00:53:41;13.13;;;11.93;;
68921;SDS011;55959;51.244;5.724;2023-05-10T00:56:08;12.07;;;10.97;;
68921;SDS011;55959;51.244;5.724;2023-05-10T00:58:34;13.20;;;12.00;;
68921;SDS011;55959;51.244;5.724;2023-05-10T01:01:00;12.23;;;11.07;;
68921;SDS011;55959;51.244;5.724;2023-05-10T01:03:26;11.20;;;10.17;;
68921;SDS011;55959;51.244;5.724;2023-05-10T01:05:53;12.30;;;11.20;;
68921;SDS011;55959;51.244;5.724;2023-05-10T01:08:19;13.47;;;12.17;;
68921;SDS011;55959;51.244;5.724;2023-05-10T01:10:45;13.20;;;11.80;;
68921;SDS011;55959;51.244;5.724;2023-05-10T01:13:13;13.37;;;12.17;;
68921;SDS011;55959;51.244;5.724;2023-05-10T01:15:56;14.57;;;13.17;;
68921;SDS011;55959;51.244;5.724;2023-05-10T01:18:23;14.40;;;13.00;;
68921;SDS011;55959;51.244;5.724;2023-05-10T01:20:53;14.60;;;13.10;;
68921;SDS011;55959;51.244;5.724;2023-05-10T01:27:29;15.20;;;13.70;;
68921;SDS011;55959;51.244;5.724;2023-05-10T01:29:58;14.00;;;12.50;;
68921;SDS011;55959;51.244;5.724;2023-05-10T01:33:00;14.40;;;13.00;;
68921;SDS011;55959;51.244;5.724;2023-05-10T01:35:48;16.20;;;14.60;;
68921;SDS011;55959;51.244;5.724;2023-05-10T01:38:26;16.07;;;14.43;;
68921;SDS011;55959;51.244;5.724;2023-05-10T01:46:46;17.80;;;15.77;;
68921;SDS011;55959;51.244;5.724;2023-05-10T01:49:21;16.23;;;14.63;;
68921;SDS011;55959;51.244;5.724;2023-05-10T01:51:52;20.67;;;18.47;;
68921;SDS011;55959;51.244;5.724;2023-05-10T01:54:20;21.97;;;19.47;;
68921;SDS011;55959;51.244;5.724;2023-05-10T01:56:47;22.20;;;18.90;;
68921;SDS011;55959;51.244;5.724;2023-05-10T01:59:22;23.53;;;21.07;;
68921;SDS011;55959;51.244;5.724;2023-05-10T02:01:53;22.47;;;20.00;;
68921;SDS011;55959;51.244;5.724;2023-05-10T02:04:22;21.00;;;18.83;;
68921;SDS011;55959;51.244;5.724;2023-05-10T02:06:50;19.07;;;17.07;;
68921;SDS011;55959;51.244;5.724;2023-05-10T02:09:18;21.13;;;19.00;;
68921;SDS011;55959;51.244;5.724;2023-05-10T02:11:45;19.67;;;17.67;;
68921;SDS011;55959;51.244;5.724;2023-05-10T02:14:14;20.50;;;17.03;;
68921;SDS011;55959;51.244;5.724;2023-05-10T02:16:42;20.37;;;17.67;;
68921;SDS011;55959;51.244;5.724;2023-05-10T02:19:10;20.57;;;18.37;;
68921;SDS011;55959;51.244;5.724;2023-05-10T02:21:39;21.87;;;19.57;;
68921;SDS011;55959;51.244;5.724;2023-05-10T02:24:05;19.90;;;17.80;;
68921;SDS011;55959;51.244;5.724;2023-05-10T02:26:33;22.93;;;18.63;;
68921;SDS011;55959;51.244;5.724;2023-05-10T02:29:01;19.60;;;17.60;;
68921;SDS011;55959;51.244;5.724;2023-05-10T02:31:29;19.77;;;17.60;;
68921;SDS011;55959;51.244;5.724;2023-05-10T02:33:57;20.53;;;17.10;;
68921;SDS011;55959;51.244;5.724;2023-05-10T02:36:25;18.57;;;15.03;;
68921;SDS011;55959;51.244;5.724;2023-05-10T02:38:54;19.43;;;17.20;;
68921;SDS011;55959;51.244;5.724;2023-05-10T02:41:21;18.90;;;16.63;;
68921;SDS011;55959;51.244;5.724;2023-05-10T02:43:50;20.73;;;18.40;;
68921;SDS011;55959;51.244;5.724;2023-05-10T02:46:18;21.23;;;17.63;;
68921;SDS011;55959;51.244;5.724;2023-05-10T02:48:44;21.87;;;19.47;;
68921;SDS011;55959;51.244;5.724;2023-05-10T02:51:10;22.00;;;18.90;;
68921;SDS011;55959;51.244;5.724;2023-05-10T02:53:40;21.30;;;18.40;;
68921;SDS011;55959;51.244;5.724;2023-05-10T02:56:13;24.10;;;20.20;;
68921;SDS011;55959;51.244;5.724;2023-05-10T02:58:49;24.57;;;19.87;;
68921;SDS011;55959;51.244;5.724;2023-05-10T03:01:16;24.00;;;20.63;;
68921;SDS011;55959;51.244;5.724;2023-05-10T03:03:42;24.20;;;19.33;;
68921;SDS011;55959;51.244;5.724;2023-05-10T03:06:08;23.47;;;20.03;;
68921;SDS011;55959;51.244;5.724;2023-05-10T03:08:34;26.13;;;21.77;;
68921;SDS011;55959;51.244;5.724;2023-05-10T03:17:00;26.13;;;19.73;;
68921;SDS011;55959;51.244;5.724;2023-05-10T03:22:21;23.47;;;19.80;;
68921;SDS011;55959;51.244;5.724;2023-05-10T03:24:56;25.60;;;19.40;;
68921;SDS011;55959;51.244;5.724;2023-05-10T03:27:23;23.57;;;19.70;;
68921;SDS011;55959;51.244;5.724;2023-05-10T03:29:51;23.70;;;20.23;;
68921;SDS011;55959;51.244;5.724;2023-05-10T03:32:19;26.73;;;20.80;;
68921;SDS011;55959;51.244;5.724;2023-05-10T03:34:45;25.07;;;19.53;;
68921;SDS011;55959;51.244;5.724;2023-05-10T03:37:11;25.50;;;20.53;;
68921;SDS011;55959;51.244;5.724;2023-05-10T03:39:37;24.00;;;19.27;;
68921;SDS011;55959;51.244;5.724;2023-05-10T03:42:02;24.33;;;19.57;;
68921;SDS011;55959;51.244;5.724;2023-05-10T03:44:28;24.83;;;19.50;;
68921;SDS011;55959;51.244;5.724;2023-05-10T03:46:54;24.40;;;19.83;;
68921;SDS011;55959;51.244;5.724;2023-05-10T03:49:21;25.33;;;20.13;;
68921;SDS011;55959;51.244;5.724;2023-05-10T03:51:47;26.90;;;20.03;;
68921;SDS011;55959;51.244;5.724;2023-05-10T03:54:13;26.03;;;20.73;;
68921;SDS011;55959;51.244;5.724;2023-05-10T03:56:39;24.63;;;19.57;;
68921;SDS011;55959;51.244;5.724;2023-05-10T03:59:05;25.90;;;20.37;;
68921;SDS011;55959;51.244;5.724;2023-05-10T04:01:32;27.10;;;21.73;;
68921;SDS011;55959;51.244;5.724;2023-05-10T04:03:59;30.90;;;22.23;;
68921;SDS011;55959;51.244;5.724;2023-05-10T04:06:25;25.50;;;20.33;;
68921;SDS011;55959;51.244;5.724;2023-05-10T04:08:51;30.40;;;21.73;;
68921;SDS011;55959;51.244;5.724;2023-05-10T04:11:16;26.70;;;21.37;;
68921;SDS011;55959;51.244;5.724;2023-05-10T04:13:42;31.17;;;22.63;;
68921;SDS011;55959;51.244;5.724;2023-05-10T04:16:08;28.90;;;21.07;;
68921;SDS011;55959;51.244;5.724;2023-05-10T04:18:34;29.60;;;21.90;;
68921;SDS011;55959;51.244;5.724;2023-05-10T04:21:00;30.50;;;22.63;;
68921;SDS011;55959;51.244;5.724;2023-05-10T04:23:26;28.60;;;21.43;;
68921;SDS011;55959;51.244;5.724;2023-05-10T04:25:52;31.97;;;22.40;;
68921;SDS011;55959;51.244;5.724;2023-05-10T04:28:25;28.00;;;20.13;;
68921;SDS011;55959;51.244;5.724;2023-05-10T04:30:52;25.60;;;19.23;;
68921;SDS011;55959;51.244;5.724;2023-05-10T04:33:17;26.10;;;20.17;;
68921;SDS011;55959;51.244;5.724;2023-05-10T04:35:43;20.47;;;16.53;;
68921;SDS011;55959;51.244;5.724;2023-05-10T04:38:10;26.43;;;18.40;;
68921;SDS011;55959;51.244;5.724;2023-05-10T04:40:35;25.90;;;19.53;;
68921;SDS011;55959;51.244;5.724;2023-05-10T04:43:01;26.07;;;19.17;;
68921;SDS011;55959;51.244;5.724;2023-05-10T04:45:27;22.60;;;17.50;;
68921;SDS011;55959;51.244;5.724;2023-05-10T04:47:53;21.20;;;16.50;;
68921;SDS011;55959;51.244;5.724;2023-05-10T04:50:18;19.63;;;15.67;;
68921;SDS011;55959;51.244;5.724;2023-05-10T04:52:44;22.70;;;17.87;;
68921;SDS011;55959;51.244;5.724;2023-05-10T04:55:10;20.00;;;16.07;;
68921;SDS011;55959;51.244;5.724;2023-05-10T04:57:36;22.57;;;16.73;;
68921;SDS011;55959;51.244;5.724;2023-05-10T05:00:02;21.07;;;17.33;;
68921;SDS011;55959;51.244;5.724;2023-05-10T05:02:29;23.03;;;17.43;;
68921;SDS011;55959;51.244;5.724;2023-05-10T05:04:55;21.83;;;17.53;;
68921;SDS011;55959;51.244;5.724;2023-05-10T05:07:22;20.67;;;17.00;;
68921;SDS011;55959;51.244;5.724;2023-05-10T05:09:48;23.73;;;19.07;;
68921;SDS011;55959;51.244;5.724;2023-05-10T05:12:14;21.00;;;17.33;;
68921;SDS011;55959;51.244;5.724;2023-05-10T05:14:40;20.10;;;17.67;;
68921;SDS011;55959;51.244;5.724;2023-05-10T05:17:06;20.87;;;17.47;;
68921;SDS011;55959;51.244;5.724;2023-05-10T05:19:33;22.33;;;17.77;;
68921;SDS011;55959;51.244;5.724;2023-05-10T05:21:59;22.13;;;18.17;;
68921;SDS011;55959;51.244;5.724;2023-05-10T05:24:24;23.67;;;18.87;;
68921;SDS011;55959;51.244;5.724;2023-05-10T05:26:50;19.53;;;17.33;;
68921;SDS011;55959;51.244;5.724;2023-05-10T05:29:16;19.90;;;15.87;;
68921;SDS011;55959;51.244;5.724;2023-05-10T05:31:42;22.13;;;17.53;;
68921;SDS011;55959;51.244;5.724;2023-05-10T05:34:08;18.97;;;16.93;;
68921;SDS011;55959;51.244;5.724;2023-05-10T05:36:35;24.13;;;18.37;;
68921;SDS011;55959;51.244;5.724;2023-05-10T05:39:05;22.97;;;18.40;;
68921;SDS011;55959;51.244;5.724;2023-05-10T05:41:31;30.07;;;24.40;;
68921;SDS011;55959;51.244;5.724;2023-05-10T05:43:57;25.17;;;21.03;;
68921;SDS011;55959;51.244;5.724;2023-05-10T05:46:23;31.03;;;23.80;;
68921;SDS011;55959;51.244;5.724;2023-05-10T05:48:49;31.50;;;24.13;;
68921;SDS011;55959;51.244;5.724;2023-05-10T05:51:15;26.30;;;21.83;;
68921;SDS011;55959;51.244;5.724;2023-05-10T05:53:41;25.07;;;20.73;;
68921;SDS011;55959;51.244;5.724;2023-05-10T05:56:07;27.27;;;21.67;;
68921;SDS011;55959;51.244;5.724;2023-05-10T05:58:33;29.90;;;24.27;;
68921;SDS011;55959;51.244;5.724;2023-05-10T06:00:58;28.60;;;22.90;;
68921;SDS011;55959;51.244;5.724;2023-05-10T06:03:24;27.53;;;22.33;;
68921;SDS011;55959;51.244;5.724;2023-05-10T06:05:50;23.60;;;20.63;;
68921;SDS011;55959;51.244;5.724;2023-05-10T06:08:16;25.20;;;21.23;;
68921;SDS011;55959;51.244;5.724;2023-05-10T06:10:41;24.23;;;20.57;;
68921;SDS011;55959;51.244;5.724;2023-05-10T06:13:07;23.20;;;19.83;;
68921;SDS011;55959;51.244;5.724;2023-05-10T06:15:33;21.60;;;18.33;;
68921;SDS011;55959;51.244;5.724;2023-05-10T06:17:59;24.87;;;19.77;;
68921;SDS011;55959;51.244;5.724;2023-05-10T06:20:25;22.40;;;17.93;;
68921;SDS011;55959;51.244;5.724;2023-05-10T06:22:51;20.63;;;18.10;;
68921;SDS011;55959;51.244;5.724;2023-05-10T06:25:16;23.67;;;18.53;;
68921;SDS011;55959;51.244;5.724;2023-05-10T06:27:43;17.93;;;16.03;;
68921;SDS011;55959;51.244;5.724;2023-05-10T06:30:09;23.83;;;17.70;;
68921;SDS011;55959;51.244;5.724;2023-05-10T06:32:36;20.90;;;17.67;;
68921;SDS011;55959;51.244;5.724;2023-05-10T06:35:02;23.43;;;18.47;;
68921;SDS011;55959;51.244;5.724;2023-05-10T06:37:28;23.70;;;18.50;;
68921;SDS011;55959;51.244;5.724;2023-05-10T06:39:54;21.40;;;18.20;;
68921;SDS011;55959;51.244;5.724;2023-05-10T06:42:20;26.03;;;17.27;;
68921;SDS011;55959;51.244;5.724;2023-05-10T06:44:45;19.33;;;16.83;;
68921;SDS011;55959;51.244;5.724;2023-05-10T06:47:11;16.97;;;15.10;;
68921;SDS011;55959;51.244;5.724;2023-05-10T06:49:37;19.93;;;16.23;;
68921;SDS011;55959;51.244;5.724;2023-05-10T06:52:05;19.70;;;15.47;;
68921;SDS011;55959;51.244;5.724;2023-05-10T06:54:30;18.17;;;15.37;;
68921;SDS011;55959;51.244;5.724;2023-05-10T06:56:56;17.40;;;15.50;;
68921;SDS011;55959;51.244;5.724;2023-05-10T06:59:22;20.23;;;16.50;;
68921;SDS011;55959;51.244;5.724;2023-05-10T07:01:47;17.93;;;15.00;;
68921;SDS011;55959;51.244;5.724;2023-05-10T07:04:13;15.50;;;13.33;;
68921;SDS011;55959;51.244;5.724;2023-05-10T07:06:39;15.53;;;12.50;;
68921;SDS011;55959;51.244;5.724;2023-05-10T07:09:04;17.27;;;13.93;;
68921;SDS011;55959;51.244;5.724;2023-05-10T07:11:30;15.33;;;12.50;;
68921;SDS011;55959;51.244;5.724;2023-05-10T07:13:56;14.00;;;12.23;;
68921;SDS011;55959;51.244;5.724;2023-05-10T07:16:22;14.63;;;13.10;;
68921;SDS011;55959;51.244;5.724;2023-05-10T07:18:48;16.80;;;14.50;;
68921;SDS011;55959;51.244;5.724;2023-05-10T07:21:15;15.20;;;12.90;;
68921;SDS011;55959;51.244;5.724;2023-05-10T07:23:41;14.77;;;13.23;;
68921;SDS011;55959;51.244;5.724;2023-05-10T07:26:06;15.43;;;13.83;;
68921;SDS011;55959;51.244;5.724;2023-05-10T07:28:32;14.47;;;12.97;;
68921;SDS011;55959;51.244;5.724;2023-05-10T07:30:58;15.13;;;13.33;;
68921;SDS011;55959;51.244;5.724;2023-05-10T07:33:23;16.57;;;14.27;;
68921;SDS011;55959;51.244;5.724;2023-05-10T07:35:49;17.03;;;15.13;;
68921;SDS011;55959;51.244;5.724;2023-05-10T07:38:15;16.03;;;13.60;;
68921;SDS011;55959;51.244;5.724;2023-05-10T07:40:42;16.17;;;14.17;;
68921;SDS011;55959;51.244;5.724;2023-05-10T07:43:08;16.90;;;14.87;;
68921;SDS011;55959;51.244;5.724;2023-05-10T07:45:33;17.37;;;15.43;;
68921;SDS011;55959;51.244;5.724;2023-05-10T07:47:59;15.50;;;13.90;;
68921;SDS011;55959;51.244;5.724;2023-05-10T07:50:25;17.80;;;14.07;;
68921;SDS011;55959;51.244;5.724;2023-05-10T07:52:50;16.53;;;13.87;;
68921;SDS011;55959;51.244;5.724;2023-05-10T07:55:18;16.37;;;14.13;;
68921;SDS011;55959;51.244;5.724;2023-05-10T07:57:44;15.10;;;12.60;;
68921;SDS011;55959;51.244;5.724;2023-05-10T08:00:15;11.77;;;10.40;;
68921;SDS011;55959;51.244;5.724;2023-05-10T08:02:43;11.80;;;10.27;;
68921;SDS011;55959;51.244;5.724;2023-05-10T08:05:09;13.03;;;9.20;;
68921;SDS011;55959;51.244;5.724;2023-05-10T08:07:35;10.43;;;8.47;;
68921;SDS011;55959;51.244;5.724;2023-05-10T08:10:02;11.23;;;9.20;;
68921;SDS011;55959;51.244;5.724;2023-05-10T08:12:29;12.70;;;10.33;;
68921;SDS011;55959;51.244;5.724;2023-05-10T08:14:55;14.63;;;11.50;;
68921;SDS011;55959;51.244;5.724;2023-05-10T08:17:21;11.63;;;10.03;;
68921;SDS011;55959;51.244;5.724;2023-05-10T08:19:46;13.93;;;11.63;;
68921;SDS011;55959;51.244;5.724;2023-05-10T08:22:12;14.30;;;12.10;;
68921;SDS011;55959;51.244;5.724;2023-05-10T08:24:38;13.03;;;10.53;;
68921;SDS011;55959;51.244;5.724;2023-05-10T08:27:04;10.47;;;9.37;;
68921;SDS011;55959;51.244;5.724;2023-05-10T08:29:30;12.17;;;10.97;;
68921;SDS011;55959;51.244;5.724;2023-05-10T08:31:56;14.93;;;11.73;;
68921;SDS011;55959;51.244;5.724;2023-05-10T08:34:22;14.33;;;11.47;;
68921;SDS011;55959;51.244;5.724;2023-05-10T08:36:49;13.00;;;11.60;;
68921;SDS011;55959;51.244;5.724;2023-05-10T08:39:15;15.77;;;12.77;;
68921;SDS011;55959;51.244;5.724;2023-05-10T08:41:41;14.53;;;11.90;;
68921;SDS011;55959;51.244;5.724;2023-05-10T08:44:10;12.53;;;11.23;;
68921;SDS011;55959;51.244;5.724;2023-05-10T08:46:36;12.23;;;10.93;;
68921;SDS011;55959;51.244;5.724;2023-05-10T08:49:07;11.80;;;10.50;;
68921;SDS011;55959;51.244;5.724;2023-05-10T08:51:35;13.57;;;12.17;;
68921;SDS011;55959;51.244;5.724;2023-05-10T08:54:05;15.87;;;13.70;;
68921;SDS011;55959;51.244;5.724;2023-05-10T08:56:31;14.60;;;13.00;;
68921;SDS011;55959;51.244;5.724;2023-05-10T08:58:57;15.03;;;13.53;;
68921;SDS011;55959;51.244;5.724;2023-05-10T09:01:23;13.23;;;11.93;;
68921;SDS011;55959;51.244;5.724;2023-05-10T09:03:50;14.53;;;13.07;;
68921;SDS011;55959;51.244;5.724;2023-05-10T09:06:16;16.20;;;13.57;;
68921;SDS011;55959;51.244;5.724;2023-05-10T09:08:42;13.90;;;12.30;;
68921;SDS011;55959;51.244;5.724;2023-05-10T09:11:09;14.73;;;13.20;;
68921;SDS011;55959;51.244;5.724;2023-05-10T09:13:37;11.57;;;10.37;;
68921;SDS011;55959;51.244;5.724;2023-05-10T09:16:03;14.93;;;11.40;;
68921;SDS011;55959;51.244;5.724;2023-05-10T09:18:29;11.20;;;9.93;;
68921;SDS011;55959;51.244;5.724;2023-05-10T09:20:55;12.43;;;9.57;;
68921;SDS011;55959;51.244;5.724;2023-05-10T09:23:21;10.93;;;9.83;;
68921;SDS011;55959;51.244;5.724;2023-05-10T09:25:48;11.70;;;10.50;;
68921;SDS011;55959;51.244;5.724;2023-05-10T09:31:22;9.83;;;8.93;;
68921;SDS011;55959;51.244;5.724;2023-05-10T09:33:49;10.10;;;9.10;;
68921;SDS011;55959;51.244;5.724;2023-05-10T09:36:16;10.27;;;8.90;;
68921;SDS011;55959;51.244;5.724;2023-05-10T09:38:46;9.77;;;8.77;;
68921;SDS011;55959;51.244;5.724;2023-05-10T09:41:20;10.20;;;9.17;;
68921;SDS011;55959;51.244;5.724;2023-05-10T09:43:47;10.70;;;9.63;;
68921;SDS011;55959;51.244;5.724;2023-05-10T09:46:14;11.10;;;10.10;;
68921;SDS011;55959;51.244;5.724;2023-05-10T09:48:41;10.23;;;9.20;;
68921;SDS011;55959;51.244;5.724;2023-05-10T09:51:24;9.50;;;8.50;;
68921;SDS011;55959;51.244;5.724;2023-05-10T09:54:11;9.00;;;8.10;;
68921;SDS011;55959;51.244;5.724;2023-05-10T09:56:39;9.30;;;8.40;;
68921;SDS011;55959;51.244;5.724;2023-05-10T09:59:06;8.70;;;7.83;;
68921;SDS011;55959;51.244;5.724;2023-05-10T10:01:37;9.40;;;8.50;;
68921;SDS011;55959;51.244;5.724;2023-05-10T10:04:04;9.73;;;8.70;;
68921;SDS011;55959;51.244;5.724;2023-05-10T10:06:35;10.60;;;9.57;;
68921;SDS011;55959;51.244;5.724;2023-05-10T10:09:02;11.37;;;10.23;;
68921;SDS011;55959;51.244;5.724;2023-05-10T10:11:29;11.47;;;10.27;;
68921;SDS011;55959;51.244;5.724;2023-05-10T10:13:55;18.47;;;15.10;;
68921;SDS011;55959;51.244;5.724;2023-05-10T10:16:21;18.67;;;16.87;;
68921;SDS011;55959;51.244;5.724;2023-05-10T10:18:47;19.27;;;17.37;;
68921;SDS011;55959;51.244;5.724;2023-05-10T10:21:13;18.40;;;16.50;;
68921;SDS011;55959;51.244;5.724;2023-05-10T10:23:40;20.27;;;18.13;;
68921;SDS011;55959;51.244;5.724;2023-05-10T10:26:06;18.37;;;16.47;;
68921;SDS011;55959;51.244;5.724;2023-05-10T10:31:18;18.30;;;16.40;;
68921;SDS011;55959;51.244;5.724;2023-05-10T10:36:46;16.27;;;14.57;;
68921;SDS011;55959;51.244;5.724;2023-05-10T10:39:13;17.37;;;15.50;;
68921;SDS011;55959;51.244;5.724;2023-05-10T10:41:55;18.20;;;16.40;;
68921;SDS011;55959;51.244;5.724;2023-05-10T10:44:23;18.73;;;16.73;;
68921;SDS011;55959;51.244;5.724;2023-05-10T10:49:33;18.87;;;16.90;;
68921;SDS011;55959;51.244;5.724;2023-05-10T10:57:24;20.23;;;18.13;;
68921;SDS011;55959;51.244;5.724;2023-05-10T10:59:51;19.83;;;17.73;;
68921;SDS011;55959;51.244;5.724;2023-05-10T11:02:51;17.93;;;16.10;;
68921;SDS011;55959;51.244;5.724;2023-05-10T11:08:01;19.97;;;17.97;;
68921;SDS011;55959;51.244;5.724;2023-05-10T11:10:36;20.27;;;18.27;;
68921;SDS011;55959;51.244;5.724;2023-05-10T11:13:06;19.07;;;17.27;;
68921;SDS011;55959;51.244;5.724;2023-05-10T11:15:34;17.30;;;15.60;;
68921;SDS011;55959;51.244;5.724;2023-05-10T11:18:18;17.60;;;15.80;;
68921;SDS011;55959;51.244;5.724;2023-05-10T11:23:32;16.37;;;14.77;;
68921;SDS011;55959;51.244;5.724;2023-05-10T11:26:13;14.20;;;12.90;;
68921;SDS011;55959;51.244;5.724;2023-05-10T11:28:46;13.93;;;12.63;;
68921;SDS011;55959;51.244;5.724;2023-05-10T11:31:14;13.57;;;12.27;;
68921;SDS011;55959;51.244;5.724;2023-05-10T11:33:49;14.83;;;13.33;;
68921;SDS011;55959;51.244;5.724;2023-05-10T11:36:17;14.30;;;12.90;;
68921;SDS011;55959;51.244;5.724;2023-05-10T11:38:45;13.97;;;12.50;;
68921;SDS011;55959;51.244;5.724;2023-05-10T11:41:12;14.67;;;13.27;;
68921;SDS011;55959;51.244;5.724;2023-05-10T11:43:41;14.70;;;13.27;;
68921;SDS011;55959;51.244;5.724;2023-05-10T11:46:09;14.40;;;12.93;;
68921;SDS011;55959;51.244;5.724;2023-05-10T11:48:40;13.73;;;12.43;;
68921;SDS011;55959;51.244;5.724;2023-05-10T11:51:08;16.93;;;15.33;;
68921;SDS011;55959;51.244;5.724;2023-05-10T11:53:35;15.57;;;14.07;;
68921;SDS011;55959;51.244;5.724;2023-05-10T11:56:08;15.97;;;14.47;;
68921;SDS011;55959;51.244;5.724;2023-05-10T11:58:36;14.60;;;13.23;;
68921;SDS011;55959;51.244;5.724;2023-05-10T12:01:03;14.23;;;12.63;;
68921;SDS011;55959;51.244;5.724;2023-05-10T12:03:32;15.30;;;13.80;;
68921;SDS011;55959;51.244;5.724;2023-05-10T12:05:59;14.17;;;12.77;;
68921;SDS011;55959;51.244;5.724;2023-05-10T12:08:28;14.70;;;13.20;;
68921;SDS011;55959;51.244;5.724;2023-05-10T12:11:05;13.40;;;12.10;;
68921;SDS011;55959;51.244;5.724;2023-05-10T12:13:39;15.68;;;13.05;;
68921;SDS011;55959;51.244;5.724;2023-05-10T12:16:14;14.23;;;12.83;;
68921;SDS011;55959;51.244;5.724;2023-05-10T12:18:48;12.73;;;11.53;;
68921;SDS011;55959;51.244;5.724;2023-05-10T12:21:16;12.77;;;11.57;;
68921;SDS011;55959;51.244;5.724;2023-05-10T12:23:42;13.13;;;11.93;;
68921;SDS011;55959;51.244;5.724;2023-05-10T12:26:11;13.73;;;12.43;;
68921;SDS011;55959;51.244;5.724;2023-05-10T12:28:37;13.10;;;11.83;;
68921;SDS011;55959;51.244;5.724;2023-05-10T12:31:05;14.00;;;12.60;;
68921;SDS011;55959;51.244;5.724;2023-05-10T12:33:43;15.03;;;12.57;;
68921;SDS011;55959;51.244;5.724;2023-05-10T12:36:11;12.43;;;11.13;;
68921;SDS011;55959;51.244;5.724;2023-05-10T12:38:43;12.48;;;11.18;;
68921;SDS011;55959;51.244;5.724;2023-05-10T12:41:16;13.32;;;12.02;;
68921;SDS011;55959;51.244;5.724;2023-05-10T12:43:43;14.50;;;13.10;;
68921;SDS011;55959;51.244;5.724;2023-05-10T12:46:16;14.93;;;13.43;;
68921;SDS011;55959;51.244;5.724;2023-05-10T12:48:43;12.50;;;10.83;;
68921;SDS011;55959;51.244;5.724;2023-05-10T12:51:10;10.80;;;9.80;;
68921;SDS011;55959;51.244;5.724;2023-05-10T12:53:42;10.67;;;9.67;;
68921;SDS011;55959;51.244;5.724;2023-05-10T12:56:10;12.43;;;11.15;;
68921;SDS011;55959;51.244;5.724;2023-05-10T12:58:36;12.73;;;11.53;;
68921;SDS011;55959;51.244;5.724;2023-05-10T13:01:02;12.70;;;11.43;;
68921;SDS011;55959;51.244;5.724;2023-05-10T13:03:28;12.60;;;11.37;;
68921;SDS011;55959;51.244;5.724;2023-05-10T13:05:53;11.23;;;10.13;;
68921;SDS011;55959;51.244;5.724;2023-05-10T13:08:19;11.40;;;10.30;;
68921;SDS011;55959;51.244;5.724;2023-05-10T13:10:45;10.50;;;9.40;;
68921;SDS011;55959;51.244;5.724;2023-05-10T13:13:10;11.30;;;10.20;;
68921;SDS011;55959;51.244;5.724;2023-05-10T13:15:36;10.57;;;9.57;;
68921;SDS011;55959;51.244;5.724;2023-05-10T13:18:02;9.95;;;8.98;;
68921;SDS011;55959;51.244;5.724;2023-05-10T13:20:28;11.27;;;10.10;;
68921;SDS011;55959;51.244;5.724;2023-05-10T13:22:53;10.43;;;9.43;;
68921;SDS011;55959;51.244;5.724;2023-05-10T13:25:19;10.80;;;9.70;;
68921;SDS011;55959;51.244;5.724;2023-05-10T13:27:45;11.00;;;9.80;;
68921;SDS011;55959;51.244;5.724;2023-05-10T13:30:11;9.80;;;8.70;;
68921;SDS011;55959;51.244;5.724;2023-05-10T13:32:37;9.87;;;8.87;;
68921;SDS011;55959;51.244;5.724;2023-05-10T13:35:03;10.50;;;8.03;;
68921;SDS011;55959;51.244;5.724;2023-05-10T13:37:30;8.63;;;7.77;;
68921;SDS011;55959;51.244;5.724;2023-05-10T13:39:57;10.50;;;9.40;;
68921;SDS011;55959;51.244;5.724;2023-05-10T13:42:23;9.43;;;7.78;;
68921;SDS011;55959;51.244;5.724;2023-05-10T13:44:49;9.85;;;8.82;;
68921;SDS011;55959;51.244;5.724;2023-05-10T13:47:15;9.57;;;8.57;;
68921;SDS011;55959;51.244;5.724;2023-05-10T13:49:41;8.40;;;7.60;;
68921;SDS011;55959;51.244;5.724;2023-05-10T13:52:07;14.95;;;8.48;;
68921;SDS011;55959;51.244;5.724;2023-05-10T13:54:34;9.83;;;8.83;;
68921;SDS011;55959;51.244;5.724;2023-05-10T13:57:02;10.65;;;8.93;;
68921;SDS011;55959;51.244;5.724;2023-05-10T13:59:28;9.50;;;8.57;;
68921;SDS011;55959;51.244;5.724;2023-05-10T14:01:54;9.07;;;8.17;;
68921;SDS011;55959;51.244;5.724;2023-05-10T14:04:19;8.87;;;7.97;;
68921;SDS011;55959;51.244;5.724;2023-05-10T14:06:45;9.83;;;8.77;;
68921;SDS011;55959;51.244;5.724;2023-05-10T14:09:11;11.23;;;8.95;;
68921;SDS011;55959;51.244;5.724;2023-05-10T14:11:37;10.63;;;8.43;;
68921;SDS011;55959;51.244;5.724;2023-05-10T14:14:06;8.30;;;7.43;;
68921;SDS011;55959;51.244;5.724;2023-05-10T14:16:32;8.70;;;7.40;;
68921;SDS011;55959;51.244;5.724;2023-05-10T14:18:58;8.40;;;7.10;;
68921;SDS011;55959;51.244;5.724;2023-05-10T14:21:24;9.25;;;7.65;;
68921;SDS011;55959;51.244;5.724;2023-05-10T14:23:49;7.63;;;6.93;;
68921;SDS011;55959;51.244;5.724;2023-05-10T14:26:15;9.77;;;7.55;;
68921;SDS011;55959;51.244;5.724;2023-05-10T14:28:41;7.78;;;6.97;;
68921;SDS011;55959;51.244;5.724;2023-05-10T14:31:07;8.03;;;7.23;;
68921;SDS011;55959;51.244;5.724;2023-05-10T14:33:33;6.80;;;6.17;;
68921;SDS011;55959;51.244;5.724;2023-05-10T14:35:59;8.23;;;6.53;;
68921;SDS011;55959;51.244;5.724;2023-05-10T14:38:25;6.53;;;5.87;;
68921;SDS011;55959;51.244;5.724;2023-05-10T14:40:51;6.78;;;6.07;;
68921;SDS011;55959;51.244;5.724;2023-05-10T14:43:18;6.07;;;5.47;;
68921;SDS011;55959;51.244;5.724;2023-05-10T14:45:43;6.25;;;5.57;;
68921;SDS011;55959;51.244;5.724;2023-05-10T14:48:10;7.57;;;5.25;;
68921;SDS011;55959;51.244;5.724;2023-05-10T14:50:40;6.20;;;5.60;;
68921;SDS011;55959;51.244;5.724;2023-05-10T14:53:06;6.45;;;5.85;;
68921;SDS011;55959;51.244;5.724;2023-05-10T14:55:32;6.18;;;5.65;;
68921;SDS011;55959;51.244;5.724;2023-05-10T14:57:58;6.18;;;5.57;;
68921;SDS011;55959;51.244;5.724;2023-05-10T15:00:23;6.78;;;6.07;;
68921;SDS011;55959;51.244;5.724;2023-05-10T15:02:49;5.15;;;4.65;;
68921;SDS011;55959;51.244;5.724;2023-05-10T15:05:15;5.38;;;4.88;;
68921;SDS011;55959;51.244;5.724;2023-05-10T15:07:40;5.32;;;4.85;;